Time;durP1;ratioP1;P1;durP2;ratioP2;P2;SDS_P1;SDS_P2;PMS_P1;PMS_P2;Temp;Humidity;BMP_temperature;BMP_pressure;BME280_temperature;BME280_humidity;BME280_pressure;Samples;Min_cycle;Max_cycle;Signal;HPM_P1;HPM_P2
2021/01/06 00:01:47;;;;;;;7.85;5.80;;;;;;;3.93;91.22;98964.50;5032926;28;20203;-65
2021/01/06 00:04:14;;;;;;;10.80;5.65;;;;;;;3.96;91.50;98959.03;5033125;28;20290;-65
2021/01/06 00:06:40;;;;;;;13.80;5.07;;;;;;;3.94;90.45;98960.91;5033421;28;20650;-64
2021/01/06 00:09:07;;;;;;;12.55;6.90;;;;;;;3.91;91.37;98953.06;5033070;28;20207;-65
2021/01/06 00:11:35;;;;;;;8.07;5.72;;;;;;;3.83;91.42;98960.47;5032987;28;20208;-65
2021/01/06 00:14:04;;;;;;;11.40;6.43;;;;;;;3.89;92.77;98965.56;5032679;28;20199;-65
2021/01/06 00:16:31;;;;;;;11.40;6.45;;;;;;;3.86;91.44;98960.34;5033401;28;20207;-64
2021/01/06 00:18:57;;;;;;;8.77;5.50;;;;;;;3.97;91.49;98958.09;5033048;28;20203;-64
2021/01/06 00:21:24;;;;;;;10.98;6.70;;;;;;;4.01;92.22;98953.53;5032723;28;20238;-64
2021/01/06 00:23:51;;;;;;;9.43;6.53;;;;;;;3.97;91.86;98962.56;5032985;28;20298;-65
2021/01/06 00:26:17;;;;;;;10.35;6.05;;;;;;;4.06;92.49;98959.53;5032621;28;20216;-65
2021/01/06 00:28:44;;;;;;;8.00;5.50;;;;;;;4.01;89.53;98958.00;5032703;28;20268;-65
2021/01/06 00:31:11;;;;;;;8.90;5.15;;;;;;;4.05;89.70;98952.47;5032637;28;20211;-65
2021/01/06 00:33:38;;;;;;;9.40;6.00;;;;;;;4.11;89.39;98946.88;5032934;28;20693;-65
2021/01/06 00:36:09;;;;;;;9.57;6.05;;;;;;;4.09;90.67;98950.53;5033039;28;20195;-66
2021/01/06 00:38:37;;;;;;;10.88;5.70;;;;;;;3.87;89.57;98946.13;5032936;28;20203;-65
2021/01/06 00:41:04;;;;;;;9.85;4.95;;;;;;;3.82;90.50;98942.78;5032320;28;20202;-65
2021/01/06 00:43:31;;;;;;;11.23;5.15;;;;;;;3.88;91.77;98942.50;5033024;28;20321;-64
2021/01/06 00:45:57;;;;;;;9.48;5.78;;;;;;;3.90;89.70;98942.44;5032495;28;20205;-65
2021/01/06 00:48:25;;;;;;;10.25;6.00;;;;;;;3.95;90.38;98945.78;5032553;28;20592;-63
2021/01/06 00:50:52;;;;;;;8.63;5.38;;;;;;;3.98;90.85;98951.00;5032259;28;20265;-66
2021/01/06 00:53:22;;;;;;;9.25;4.70;;;;;;;3.83;88.79;98946.31;5032974;28;20709;-65
2021/01/06 00:55:49;;;;;;;7.68;5.15;;;;;;;3.69;88.33;98945.06;5032722;28;20266;-64
2021/01/06 00:58:15;;;;;;;7.20;4.15;;;;;;;3.71;89.15;98950.34;5032544;28;20658;-66
2021/01/06 01:00:41;;;;;;;8.05;4.90;;;;;;;3.70;89.41;98951.25;5032291;28;20188;-64
2021/01/06 01:03:08;;;;;;;10.88;5.53;;;;;;;3.59;89.18;98950.81;5032479;28;20615;-64
2021/01/06 01:05:36;;;;;;;8.82;4.85;;;;;;;3.64;89.43;98949.72;5031135;28;20260;-64
2021/01/06 01:08:04;;;;;;;7.70;4.07;;;;;;;3.61;89.31;98949.81;5031852;28;20223;-64
2021/01/06 01:10:33;;;;;;;5.45;3.72;;;;;;;3.84;89.49;98948.03;5032126;28;20297;-65
2021/01/06 01:13:00;;;;;;;7.20;4.47;;;;;;;3.72;87.71;98954.72;5032065;28;20226;-65
2021/01/06 01:15:29;;;;;;;6.38;4.82;;;;;;;3.85;88.61;98955.09;5032061;28;20253;-64
2021/01/06 01:17:56;;;;;;;8.38;4.68;;;;;;;3.76;89.56;98961.66;5031793;28;20203;-66
2021/01/06 01:20:22;;;;;;;9.05;5.30;;;;;;;3.91;90.09;98953.06;5032232;28;20649;-65
2021/01/06 01:22:50;;;;;;;6.13;4.00;;;;;;;3.97;88.96;98954.59;5031705;28;20259;-65
2021/01/06 01:25:19;;;;;;;7.03;4.68;;;;;;;4.05;89.52;98957.81;5031787;28;20202;-65
2021/01/06 01:27:45;;;;;;;6.97;4.63;;;;;;;3.94;88.01;98957.38;5031786;28;20222;-66
2021/01/06 01:30:28;;;;;;;9.13;4.85;;;;;;;4.16;86.75;98954.66;5031635;28;20257;-65
2021/01/06 01:32:55;;;;;;;7.05;4.35;;;;;;;4.12;85.16;98961.94;4951504;29;20238;-63
2021/01/06 01:35:25;;;;;;;7.50;4.35;;;;;;;4.04;85.14;98966.72;4951982;29;20212;-65
2021/01/06 01:37:54;;;;;;;8.73;5.28;;;;;;;4.06;86.50;98966.66;4951825;29;20197;-67
2021/01/06 01:40:22;;;;;;;6.72;4.03;;;;;;;4.02;86.30;98973.03;4951672;29;20191;-64
2021/01/06 01:42:56;;;;;;;8.68;5.10;;;;;;;4.23;84.74;98972.16;4951785;29;20210;-65
2021/01/06 01:45:28;;;;;;;5.15;3.95;;;;;;;4.14;85.72;98972.53;4951473;29;20272;-65
2021/01/06 01:48:01;;;;;;;9.68;5.03;;;;;;;3.99;86.50;98978.50;4951657;29;20349;-66
2021/01/06 01:50:29;;;;;;;9.82;5.15;;;;;;;3.83;86.97;98975.59;4951559;29;20203;-65
2021/01/06 01:53:04;;;;;;;9.00;4.15;;;;;;;4.06;86.81;98980.84;4951326;29;20249;-65
2021/01/06 01:55:32;;;;;;;8.48;3.75;;;;;;;3.91;87.89;98977.03;4951426;29;20212;-65
2021/01/06 01:58:02;;;;;;;7.85;4.63;;;;;;;3.80;88.35;98973.94;4951185;29;20298;-66
2021/01/06 02:00:32;;;;;;;7.55;3.40;;;;;;;3.82;88.03;98966.75;4951714;29;20195;-66
2021/01/06 02:03:06;;;;;;;6.03;3.95;;;;;;;3.79;87.35;98973.97;4951298;29;20205;-65
2021/01/06 02:05:37;;;;;;;5.82;3.95;;;;;;;3.80;86.92;98971.25;4951596;29;20655;-64
2021/01/06 02:08:12;;;;;;;4.72;3.55;;;;;;;3.87;86.07;98972.75;4951337;29;20316;-66
2021/01/06 02:10:45;;;;;;;3.95;2.75;;;;;;;3.87;86.37;98972.75;5012354;28;20219;-65
2021/01/06 02:13:18;;;;;;;5.00;2.70;;;;;;;3.72;86.10;98976.88;5031433;28;20630;-65
2021/01/06 02:15:51;;;;;;;4.72;2.95;;;;;;;3.70;86.69;98980.53;5031183;28;20662;-64
2021/01/06 02:18:18;;;;;;;5.22;3.28;;;;;;;3.66;87.38;98985.09;5035403;28;20570;-65
2021/01/06 02:21:00;;;;;;;6.40;2.97;;;;;;;3.53;87.21;98975.91;5034810;28;20295;-66
2021/01/06 02:23:26;;;;;;;6.68;5.85;;;;;;;3.59;87.32;98977.44;5035328;28;20274;-65
2021/01/06 02:25:52;;;;;;;4.18;3.15;;;;;;;3.79;87.95;98980.16;5035198;28;20196;-64
2021/01/06 02:28:18;;;;;;;5.72;2.70;;;;;;;3.79;86.42;98982.81;5034860;28;20234;-64
2021/01/06 02:30:45;;;;;;;3.95;3.47;;;;;;;3.73;86.08;98978.63;5034816;28;20228;-65
2021/01/06 02:33:11;;;;;;;8.25;3.13;;;;;;;3.69;85.77;98977.00;5035333;28;20211;-65
2021/01/06 02:35:37;;;;;;;4.10;2.78;;;;;;;3.42;85.78;98978.97;5034996;28;20252;-65
2021/01/06 02:38:04;;;;;;;4.18;3.10;;;;;;;3.58;87.36;98979.25;5035039;28;20182;-64
2021/01/06 02:40:31;;;;;;;4.47;3.15;;;;;;;3.87;89.34;98978.06;5035021;28;20210;-64
2021/01/06 02:42:57;;;;;;;5.68;3.53;;;;;;;3.91;85.15;98977.03;5034466;28;20211;-66
2021/01/06 02:45:23;;;;;;;5.68;3.17;;;;;;;4.08;86.58;98972.78;5034375;28;20304;-65
2021/01/06 02:47:51;;;;;;;7.60;4.07;;;;;;;3.92;86.86;98977.88;5034708;28;20206;-64
2021/01/06 02:50:22;;;;;;;6.05;3.25;;;;;;;3.64;86.00;98973.69;5034537;28;20253;-64
2021/01/06 02:52:55;;;;;;;5.05;3.20;;;;;;;3.60;86.07;98976.53;5034747;28;20190;-65
2021/01/06 02:55:24;;;;;;;5.72;3.95;;;;;;;3.48;87.14;98975.19;5034558;28;20280;-65
2021/01/06 02:57:53;;;;;;;5.72;3.50;;;;;;;3.44;88.29;98965.63;5034536;28;20297;-66
2021/01/06 03:00:24;;;;;;;3.33;2.63;;;;;;;3.51;88.91;98967.09;5034956;28;20188;-65
2021/01/06 03:02:51;;;;;;;3.30;2.92;;;;;;;3.50;88.64;98965.34;5034277;28;20211;-64
2021/01/06 03:05:21;;;;;;;5.70;3.40;;;;;;;3.66;88.73;98961.16;5034222;28;20725;-64
2021/01/06 03:07:48;;;;;;;4.03;2.88;;;;;;;3.64;88.04;98959.47;5034635;28;20298;-66
2021/01/06 03:10:17;;;;;;;8.48;3.45;;;;;;;3.78;87.95;98970.47;5034500;28;20187;-65
2021/01/06 03:12:45;;;;;;;4.50;3.22;;;;;;;3.72;88.00;98965.38;5034508;28;20652;-65
2021/01/06 03:15:14;;;;;;;4.53;3.17;;;;;;;3.87;87.94;98962.09;5034666;28;20222;-65
2021/01/06 03:17:40;;;;;;;6.45;3.58;;;;;;;3.73;87.21;98956.44;5034163;28;20233;-65
2021/01/06 03:20:11;;;;;;;5.20;3.67;;;;;;;3.80;89.32;98959.72;5033967;28;20239;-65
2021/01/06 03:22:40;;;;;;;5.32;2.97;;;;;;;3.51;88.26;98945.81;5033976;28;20835;-65
2021/01/06 03:25:09;;;;;;;4.75;3.13;;;;;;;3.57;88.69;98953.53;5034303;28;20630;-64
2021/01/06 03:27:37;;;;;;;6.13;3.90;;;;;;;3.61;88.17;98948.97;5033924;28;20206;-64
2021/01/06 03:30:06;;;;;;;5.18;3.55;;;;;;;3.65;88.42;98954.09;5033549;28;20233;-66
2021/01/06 03:32:40;;;;;;;5.57;3.42;;;;;;;3.71;88.91;98959.19;5034142;28;20287;-64
2021/01/06 03:35:15;;;;;;;5.72;3.55;;;;;;;3.71;87.48;98953.00;5033720;28;20285;-65
2021/01/06 03:37:48;;;;;;;4.10;2.90;;;;;;;3.65;87.14;98953.25;5034007;28;20204;-64
2021/01/06 03:40:26;;;;;;;4.65;3.03;;;;;;;3.68;87.22;98953.97;5033984;28;20206;-65
2021/01/06 03:42:53;;;;;;;6.05;4.05;;;;;;;3.86;87.48;98949.69;5033970;28;20198;-66
2021/01/06 03:45:25;;;;;;;3.75;3.33;;;;;;;3.84;86.77;98938.22;5034003;28;20668;-64
2021/01/06 03:48:05;;;;;;;5.50;3.17;;;;;;;3.78;85.94;98949.16;5033859;28;20252;-66
2021/01/06 03:50:35;;;;;;;3.88;3.33;;;;;;;3.80;87.19;98947.31;5033872;28;20288;-65
2021/01/06 03:53:14;;;;;;;4.30;3.05;;;;;;;3.70;87.13;98956.56;5033886;28;20196;-65
2021/01/06 03:55:49;;;;;;;5.22;3.40;;;;;;;3.67;87.14;98951.38;5033357;28;20196;-65
2021/01/06 03:58:26;;;;;;;5.72;3.75;;;;;;;3.79;86.86;98944.69;5033762;28;20192;-65
2021/01/06 04:00:59;;;;;;;4.60;3.15;;;;;;;3.83;87.54;98947.16;5033712;28;20280;-65
2021/01/06 04:03:30;;;;;;;4.40;3.40;;;;;;;3.85;87.13;98947.97;5033553;28;20246;-64
2021/01/06 04:05:58;;;;;;;4.38;3.45;;;;;;;3.74;87.79;98950.19;5033649;28;20572;-65
2021/01/06 04:08:39;;;;;;;8.35;3.90;;;;;;;3.57;89.28;98950.00;5033214;28;20232;-64
2021/01/06 04:11:08;;;;;;;5.63;3.63;;;;;;;3.63;88.81;98949.78;5033412;28;20578;-64
2021/01/06 04:13:35;;;;;;;5.20;3.20;;;;;;;3.76;89.71;98943.88;5033121;28;20280;-66
2021/01/06 04:16:02;;;;;;;7.65;3.72;;;;;;;3.66;88.63;98950.50;5033291;28;20209;-63
2021/01/06 04:18:28;;;;;;;8.82;4.22;;;;;;;3.63;89.13;98949.78;5033054;28;20209;-64
2021/01/06 04:20:54;;;;;;;4.05;3.10;;;;;;;3.75;90.38;98949.25;5032634;28;20315;-64
2021/01/06 04:23:21;;;;;;;4.65;3.25;;;;;;;3.71;89.18;98937.88;5032869;28;20285;-64
2021/01/06 04:25:50;;;;;;;4.47;2.63;;;;;;;4.09;85.41;98942.53;5033035;28;20187;-65
2021/01/06 04:28:19;;;;;;;6.63;3.42;;;;;;;3.86;86.92;98941.69;5032626;28;20267;-67
2021/01/06 04:30:48;;;;;;;4.13;3.10;;;;;;;3.67;88.38;98935.41;5032931;28;20688;-65
2021/01/06 04:33:20;;;;;;;4.97;3.13;;;;;;;3.64;89.16;98936.41;5033123;28;20625;-65
2021/01/06 04:35:47;;;;;;;5.32;4.00;;;;;;;3.69;88.94;98933.56;5032923;28;20215;-65
2021/01/06 04:38:18;;;;;;;5.07;3.95;;;;;;;3.70;89.95;98933.47;5032832;28;20200;-65
2021/01/06 04:40:46;;;;;;;4.28;3.53;;;;;;;3.67;90.15;98935.41;5032150;28;20240;-64
2021/01/06 04:43:22;;;;;;;4.97;3.40;;;;;;;3.92;89.94;98930.81;5032563;28;20243;-66
2021/01/06 04:45:57;;;;;;;5.35;3.53;;;;;;;3.80;89.53;98927.75;5032775;28;20318;-65
2021/01/06 04:48:51;;;;;;;5.10;3.20;;;;;;;3.79;87.50;98932.22;5032639;28;20303;-65
2021/01/06 04:51:30;;;;;;;5.60;3.35;;;;;;;3.71;88.68;98926.38;5032748;28;20277;-64
2021/01/06 04:54:07;;;;;;;3.65;3.08;;;;;;;3.93;86.18;98927.22;5032185;28;20187;-65
2021/01/06 04:56:47;;;;;;;3.40;2.70;;;;;;;3.76;86.56;98929.72;5032718;28;20676;-65
2021/01/06 04:59:29;;;;;;;3.97;3.13;;;;;;;3.69;87.23;98930.91;5032185;28;20184;-66
2021/01/06 05:06:01;;;;;;;;;;;;;;;;;;;;;
2021/01/06 08:10:14;;;;;;;4.78;3.55;;;;;;;4.24;84.90;99028.97;4697845;30;20210;-66
2021/01/06 12:26:15;;;;;;;4.60;3.50;;;;;;;5.12;77.43;98996.72;4802832;29;20248;-66
2021/01/06 13:05:24;;;;;;;6.20;4.17;;;;;;;5.30;76.81;98997.69;4804452;29;20194;-65
2021/01/06 13:07:53;;;;;;;5.47;3.50;;;;;;;5.21;77.43;98991.81;4834321;29;20334;-66
2021/01/06 13:10:30;;;;;;;7.03;4.03;;;;;;;5.29;77.95;98995.94;4894325;29;20233;-65
2021/01/06 13:13:02;;;;;;;6.65;4.25;;;;;;;5.33;77.94;99000.19;4894529;29;20220;-67
2021/01/06 13:15:34;;;;;;;5.80;3.45;;;;;;;5.34;77.00;98997.47;4894290;29;20207;-66
2021/01/06 13:18:05;;;;;;;3.67;2.70;;;;;;;5.50;75.58;98999.44;4917729;29;20237;-66
2021/01/06 13:20:56;;;;;;;5.57;3.53;;;;;;;5.30;76.17;99000.34;4932573;29;20349;-67
2021/01/06 13:23:38;;;;;;;4.63;3.45;;;;;;;5.16;76.72;98996.50;4932314;29;20281;-65
2021/01/06 13:26:29;;;;;;;5.55;3.45;;;;;;;5.31;76.64;99000.25;4931991;29;20256;-66
2021/01/06 13:29:14;;;;;;;6.05;3.22;;;;;;;5.28;77.29;98996.88;4932313;29;20235;-66
2021/01/06 13:31:46;;;;;;;6.57;3.85;;;;;;;5.42;76.86;98999.75;4931742;29;20286;-65
2021/01/06 13:34:24;;;;;;;5.72;3.17;;;;;;;5.38;76.83;99000.84;4931819;29;20215;-64
2021/01/06 13:36:55;;;;;;;4.25;3.10;;;;;;;5.63;74.34;98992.53;4932121;29;20215;-65
2021/01/06 13:39:36;;;;;;;3.17;2.85;;;;;;;5.40;75.13;99001.63;4932364;29;20632;-65
2021/01/06 13:42:22;;;;;;;5.32;3.05;;;;;;;5.23;76.24;99000.63;4932022;29;20215;-66
2021/01/06 13:44:52;;;;;;;6.32;3.35;;;;;;;5.18;77.08;99002.63;4932001;29;20207;-65
2021/01/06 13:47:23;;;;;;;5.35;3.40;;;;;;;5.22;76.80;99006.03;4932279;29;20702;-65
2021/01/06 13:50:11;;;;;;;4.20;3.10;;;;;;;5.17;76.36;99000.88;4931926;29;20311;-66
2021/01/06 13:52:43;;;;;;;3.40;2.88;;;;;;;5.22;76.16;99012.25;4931934;29;20623;-66
2021/01/06 13:55:32;;;;;;;4.00;2.85;;;;;;;5.12;77.04;99007.38;4932387;29;20218;-66
2021/01/06 13:58:06;;;;;;;4.25;2.42;;;;;;;5.08;76.95;99006.66;4932836;28;20201;-67
2021/01/06 14:00:42;;;;;;;6.20;3.85;;;;;;;5.18;76.38;99005.31;5009232;28;20212;-65
2021/01/06 14:03:27;;;;;;;3.88;2.70;;;;;;;5.32;77.30;99014.50;5009548;28;20571;-65
2021/01/06 14:06:06;;;;;;;5.25;3.38;;;;;;;5.09;77.56;99011.06;5007950;28;20205;-65
2021/01/06 14:08:52;;;;;;;4.30;3.15;;;;;;;5.30;76.79;99014.56;5008847;28;20222;-65
2021/01/06 14:11:29;;;;;;;3.53;2.50;;;;;;;5.43;74.92;99014.88;5009303;28;20206;-65
2021/01/06 14:14:12;;;;;;;4.70;3.00;;;;;;;5.32;76.61;99022.50;5011924;28;20201;-66
2021/01/06 14:16:54;;;;;;;3.92;2.20;;;;;;;5.55;73.95;99016.94;5013438;28;20206;-66
2021/01/06 14:19:55;;;;;;;2.53;2.33;;;;;;;5.58;74.28;99029.28;5013027;28;20237;-65
2021/01/06 14:22:36;;;;;;;3.47;2.92;;;;;;;5.40;74.89;99029.22;5012950;28;20292;-65
2021/01/06 14:25:52;;;;;;;5.88;3.75;;;;;;;5.51;75.27;99038.53;5012894;28;20237;-66
2021/01/06 14:28:27;;;;;;;3.60;2.10;;;;;;;5.44;74.41;99037.94;5012581;28;20206;-65
2021/01/06 14:30:58;;;;;;;3.40;2.30;;;;;;;5.43;74.38;99036.22;5012993;28;20206;-66
2021/01/06 14:33:40;;;;;;;4.07;2.53;;;;;;;5.40;74.87;99039.00;5013197;28;20228;-66
2021/01/06 14:36:19;;;;;;;5.10;2.60;;;;;;;5.34;74.66;99036.66;5012999;28;20301;-66
2021/01/06 14:38:50;;;;;;;3.10;2.10;;;;;;;5.42;74.05;99034.47;5012481;28;20193;-65
2021/01/06 14:41:35;;;;;;;4.28;3.05;;;;;;;5.18;75.80;99033.81;5012899;28;20620;-66
2021/01/06 14:44:38;;;;;;;4.60;2.30;;;;;;;5.23;75.85;99035.31;5012493;28;20199;-66
2021/01/06 14:47:31;;;;;;;2.90;2.70;;;;;;;5.31;74.64;99036.75;5012571;28;20657;-64
2021/01/06 14:50:03;;;;;;;3.95;2.80;;;;;;;5.46;73.41;99035.22;5011389;28;20447;-66
2021/01/06 14:52:33;;;;;;;5.53;2.72;;;;;;;5.34;73.64;99042.00;5012256;28;20631;-65
2021/01/06 14:55:03;;;;;;;5.28;3.30;;;;;;;5.26;74.66;99046.78;5029611;28;20252;-63
2021/01/06 14:57:58;;;;;;;3.30;2.90;;;;;;;5.17;75.45;99040.91;5034171;28;20190;-66
2021/01/06 15:00:38;;;;;;;5.35;2.83;;;;;;;4.93;76.48;99045.56;5032819;28;20202;-66
2021/01/06 15:03:20;;;;;;;3.53;2.50;;;;;;;5.14;76.58;99053.56;5034682;28;20202;-66
2021/01/06 15:05:53;;;;;;;2.92;2.70;;;;;;;5.06;76.08;99053.88;5034247;28;20198;-65
2021/01/06 15:08:25;;;;;;;5.20;2.65;;;;;;;5.21;75.42;99047.88;5034066;28;20236;-65
2021/01/06 15:11:11;;;;;;;3.78;2.58;;;;;;;5.21;75.42;99042.53;5034313;28;20219;-66
2021/01/06 15:13:40;;;;;;;3.78;2.40;;;;;;;5.23;75.11;99043.31;5033734;28;20228;-67
2021/01/06 15:16:11;;;;;;;2.83;2.40;;;;;;;5.23;75.46;99048.66;5033824;28;20201;-65
2021/01/06 15:18:38;;;;;;;3.40;2.40;;;;;;;5.13;75.83;99058.03;5033775;28;20515;-65
2021/01/06 15:21:19;;;;;;;3.65;2.35;;;;;;;5.36;74.23;99050.75;5034376;28;20202;-65
2021/01/06 15:23:49;;;;;;;2.10;1.83;;;;;;;5.23;75.19;99045.13;5032903;28;20226;-65
2021/01/06 15:26:25;;;;;;;3.22;2.15;;;;;;;5.32;74.15;99049.19;5033656;28;20209;-66
2021/01/06 15:28:55;;;;;;;3.60;2.35;;;;;;;5.34;75.07;99050.00;5033440;28;20225;-66
2021/01/06 15:31:26;;;;;;;4.22;2.58;;;;;;;5.18;75.38;99055.16;5033952;28;20205;-66
2021/01/06 15:33:57;;;;;;;3.75;1.65;;;;;;;5.25;75.39;99061.09;5033480;28;20202;-66
2021/01/06 15:36:28;;;;;;;4.05;2.72;;;;;;;5.05;76.49;99060.16;5033864;28;20291;-65
2021/01/06 15:38:58;;;;;;;4.28;2.88;;;;;;;5.10;76.19;99065.28;5033250;28;20308;-66
2021/01/06 15:41:29;;;;;;;5.00;3.22;;;;;;;5.04;77.07;99066.41;5033259;28;20303;-66
2021/01/06 15:43:57;;;;;;;5.60;3.97;;;;;;;5.20;76.60;99062.16;5033427;28;20335;-67
2021/01/06 15:46:26;;;;;;;5.75;2.50;;;;;;;5.27;76.40;99057.41;5033559;28;20201;-66
2021/01/06 15:48:59;;;;;;;4.25;2.58;;;;;;;5.30;77.78;99061.75;5033194;28;20327;-65
2021/01/06 15:51:28;;;;;;;5.72;3.42;;;;;;;5.10;78.38;99060.81;5033273;28;20540;-65
2021/01/06 15:54:02;;;;;;;6.80;3.60;;;;;;;5.03;79.85;99051.34;5033033;28;20206;-65
2021/01/06 15:56:37;;;;;;;8.85;4.40;;;;;;;4.96;80.63;99053.44;5033117;28;20207;-67
2021/01/06 15:59:05;;;;;;;7.13;4.00;;;;;;;5.07;80.37;99054.78;5033143;28;20214;-66
2021/01/06 16:01:31;;;;;;;6.20;3.80;;;;;;;4.88;81.26;99060.03;5033192;28;20202;-65
2021/01/06 16:04:08;;;;;;;7.95;4.72;;;;;;;4.75;81.80;99054.38;5033056;28;20832;-66
2021/01/06 16:06:47;;;;;;;7.95;4.70;;;;;;;4.76;83.33;99056.09;5033347;28;20644;-65
2021/01/06 16:09:14;;;;;;;7.70;5.38;;;;;;;4.72;83.36;99066.00;5032924;28;20657;-66
2021/01/06 16:11:42;;;;;;;6.00;3.67;;;;;;;4.57;83.55;99062.22;5033499;28;20345;-65
2021/01/06 16:14:16;;;;;;;12.35;4.80;;;;;;;4.64;83.95;99060.16;5032697;28;20210;-66
2021/01/06 16:16:54;;;;;;;7.60;4.50;;;;;;;4.92;81.43;99062.50;5032743;28;20186;-66
2021/01/06 16:19:22;;;;;;;4.40;3.95;;;;;;;5.03;80.92;99072.69;5032750;28;20598;-65
2021/01/06 16:21:49;;;;;;;7.32;4.47;;;;;;;5.08;80.36;99065.34;5033021;28;20210;-66
2021/01/06 16:24:22;;;;;;;10.95;4.72;;;;;;;5.18;80.08;99071.19;5032823;28;20233;-67
2021/01/06 16:26:55;;;;;;;10.93;3.75;;;;;;;5.13;79.85;99067.81;5032573;28;20195;-66
2021/01/06 16:29:26;;;;;;;6.13;3.50;;;;;;;5.07;80.43;99074.31;5032172;28;20646;-65
2021/01/06 16:32:18;;;;;;;4.82;3.78;;;;;;;4.94;80.53;99073.09;5032444;28;20209;-66
2021/01/06 16:34:58;;;;;;;6.05;3.85;;;;;;;5.07;80.16;99076.97;5022561;28;20208;-65
2021/01/06 16:37:25;;;;;;;10.65;4.93;;;;;;;5.01;79.46;99067.44;5032272;28;20211;-66
2021/01/06 16:40:04;;;;;;;6.80;3.38;;;;;;;5.03;79.01;99069.19;5032229;28;20205;-64
2021/01/06 16:42:31;;;;;;;6.60;3.90;;;;;;;4.78;79.93;99065.75;5032545;28;20580;-66
2021/01/06 16:45:04;;;;;;;4.53;3.33;;;;;;;4.66;80.68;99070.75;5032288;28;20639;-66
2021/01/06 16:47:31;;;;;;;5.15;3.78;;;;;;;4.71;81.45;99077.63;5032117;28;20212;-65
2021/01/06 16:49:59;;;;;;;6.95;4.00;;;;;;;4.75;81.24;99065.03;5031994;28;20225;-66
2021/01/06 16:52:27;;;;;;;6.40;3.85;;;;;;;4.80;80.78;99071.03;5032338;28;20632;-66
2021/01/06 16:55:03;;;;;;;6.43;4.22;;;;;;;4.83;81.33;99068.22;5032170;28;20188;-65
2021/01/06 16:57:33;;;;;;;6.93;4.80;;;;;;;5.05;79.82;99069.97;5032280;28;20204;-66
2021/01/06 17:00:09;;;;;;;9.68;5.00;;;;;;;5.05;79.89;99069.97;5032136;28;20234;-66
2021/01/06 17:02:36;;;;;;;7.95;3.88;;;;;;;5.13;79.30;99074.06;5032142;28;20257;-65
2021/01/06 17:05:05;;;;;;;8.55;3.92;;;;;;;5.12;79.46;99077.63;5031843;28;20206;-66
2021/01/06 17:07:36;;;;;;;5.65;3.85;;;;;;;5.09;79.24;99069.78;5031986;28;20200;-65
2021/01/06 17:10:14;;;;;;;6.15;4.13;;;;;;;4.95;80.27;99077.50;5031232;28;20596;-65
2021/01/06 17:12:41;;;;;;;9.25;4.43;;;;;;;5.13;79.06;99083.84;5031993;28;20644;-66
2021/01/06 17:15:24;;;;;;;5.32;3.72;;;;;;;4.98;79.54;99075.56;5031143;28;20239;-65
2021/01/06 17:17:52;;;;;;;6.97;3.90;;;;;;;4.86;79.55;99084.13;5031576;28;20212;-65
2021/01/06 17:20:23;;;;;;;6.20;4.00;;;;;;;4.61;80.96;99081.59;5031530;28;20204;-65
2021/01/06 17:22:52;;;;;;;6.78;4.50;;;;;;;4.68;81.37;99077.78;5031746;28;20563;-64
2021/01/06 17:25:22;;;;;;;7.60;4.45;;;;;;;4.75;81.21;99081.91;5031349;28;20244;-65
2021/01/06 17:27:53;;;;;;;7.95;4.50;;;;;;;4.58;81.76;99089.75;5031543;28;20204;-65
2021/01/06 17:30:24;;;;;;;6.88;4.82;;;;;;;4.54;82.69;99098.78;5031520;28;20211;-65
2021/01/06 17:33:04;;;;;;;7.97;5.47;;;;;;;4.56;82.97;99094.28;5031631;28;20642;-65
2021/01/06 17:35:30;;;;;;;8.25;5.53;;;;;;;4.59;82.95;99103.03;5031584;28;20635;-65
2021/01/06 17:37:59;;;;;;;6.30;3.67;;;;;;;4.54;82.62;99096.13;5031646;28;20189;-64
2021/01/06 17:40:27;;;;;;;8.52;5.13;;;;;;;4.46;83.15;99092.94;5031594;28;20627;-65
2021/01/06 17:42:58;;;;;;;6.18;3.90;;;;;;;4.39;83.29;99106.50;5031368;28;20386;-64
2021/01/06 17:45:26;;;;;;;5.63;3.78;;;;;;;4.24;84.34;99107.13;5031749;28;20631;-65
2021/01/06 17:47:55;;;;;;;9.43;4.78;;;;;;;4.30;84.63;99106.88;5030316;28;20203;-65
2021/01/06 17:50:23;;;;;;;12.68;6.55;;;;;;;4.34;84.56;99115.59;5032169;28;20205;-65
2021/01/06 17:52:50;;;;;;;7.75;5.20;;;;;;;4.42;84.39;99116.16;5031943;28;20272;-65
2021/01/06 17:55:18;;;;;;;8.82;5.55;;;;;;;4.52;84.36;99112.22;5031806;28;20564;-65
2021/01/06 17:57:45;;;;;;;9.80;4.85;;;;;;;4.57;83.90;99128.03;5031244;28;20206;-64
2021/01/06 18:00:14;;;;;;;8.10;4.50;;;;;;;4.64;83.49;99124.16;5031638;28;20207;-65
2021/01/06 18:02:40;;;;;;;8.40;5.43;;;;;;;4.53;84.35;99113.06;5031180;28;20204;-66
2021/01/06 18:05:09;;;;;;;10.43;5.40;;;;;;;4.73;83.37;99113.09;5031625;28;20203;-65
2021/01/06 18:07:36;;;;;;;8.45;5.90;;;;;;;4.72;82.62;99119.34;5031712;28;20230;-66
2021/01/06 18:10:03;;;;;;;11.60;6.22;;;;;;;4.65;83.28;99127.69;5031172;28;20223;-65
2021/01/06 18:12:31;;;;;;;8.25;5.38;;;;;;;4.58;83.61;99119.94;5030912;28;20209;-64
2021/01/06 18:14:58;;;;;;;9.80;5.05;;;;;;;4.49;84.41;99122.97;5030915;28;20204;-65
2021/01/06 18:17:30;;;;;;;10.35;6.90;;;;;;;4.52;84.79;99129.97;5030694;28;20282;-65
2021/01/06 18:19:56;;;;;;;8.57;5.85;;;;;;;4.52;84.82;99133.53;5031034;28;20620;-66
2021/01/06 18:22:24;;;;;;;7.10;5.32;;;;;;;4.51;85.09;99136.25;5031350;28;20209;-65
2021/01/06 18:24:52;;;;;;;10.25;5.35;;;;;;;4.72;83.71;99137.16;5031359;28;20697;-65
2021/01/06 18:27:20;;;;;;;8.73;5.47;;;;;;;4.76;82.57;99136.97;5031194;28;20207;-65
2021/01/06 18:29:54;;;;;;;7.55;4.68;;;;;;;4.63;83.61;99133.06;5031294;28;20210;-66
2021/01/06 18:32:22;;;;;;;12.35;5.53;;;;;;;4.55;83.76;99132.53;5031319;28;20259;-65
2021/01/06 18:34:52;;;;;;;12.10;6.63;;;;;;;4.57;83.66;99144.00;5031305;28;20203;-65
2021/01/06 18:37:21;;;;;;;12.40;6.30;;;;;;;4.47;84.18;99140.84;5031385;28;20188;-64
2021/01/06 18:40:05;;;;;;;9.88;4.97;;;;;;;4.53;84.16;99135.25;5030801;28;20272;-65
2021/01/06 18:42:31;;;;;;;9.13;5.10;;;;;;;4.60;83.57;99136.75;5031068;28;20187;-67
2021/01/06 18:45:07;;;;;;;10.93;6.10;;;;;;;4.59;83.82;99144.81;5031423;28;20203;-65
2021/01/06 18:47:48;;;;;;;8.27;5.45;;;;;;;4.34;84.67;99142.25;5030908;28;20199;-67
2021/01/06 18:50:26;;;;;;;5.20;4.20;;;;;;;4.54;84.00;99136.13;5030908;28;20222;-65
2021/01/06 18:52:53;;;;;;;6.47;3.85;;;;;;;4.53;83.49;99143.25;5030878;28;20243;-65
2021/01/06 18:55:30;;;;;;;7.57;5.45;;;;;;;4.54;83.54;99138.78;5031367;28;20217;-65
2021/01/06 18:57:57;;;;;;;9.55;4.88;;;;;;;4.57;83.52;99144.88;5031257;28;20548;-65
2021/01/06 19:00:26;;;;;;;7.30;5.10;;;;;;;4.28;84.26;99143.38;5034433;28;20236;-66
2021/01/06 19:02:53;;;;;;;7.10;4.80;;;;;;;4.34;84.99;99143.16;5034827;28;20200;-65
2021/01/06 19:05:20;;;;;;;7.60;5.05;;;;;;;4.25;85.30;99135.53;5034998;28;20700;-64
2021/01/06 19:07:57;;;;;;;7.07;5.38;;;;;;;4.69;82.81;99146.16;5034511;28;20236;-63
2021/01/06 19:10:28;;;;;;;8.15;4.70;;;;;;;4.74;81.64;99144.16;5034311;28;20642;-64
2021/01/06 19:12:57;;;;;;;11.02;4.75;;;;;;;4.62;82.17;99149.16;5034104;28;20209;-64
2021/01/06 19:15:26;;;;;;;7.32;4.93;;;;;;;4.71;81.37;99149.63;5034199;28;20255;-65
2021/01/06 19:17:53;;;;;;;9.20;4.50;;;;;;;4.66;81.70;99145.41;5034289;28;20205;-66
2021/01/06 19:20:31;;;;;;;5.13;3.53;;;;;;;4.52;81.69;99143.31;5033957;28;20209;-65
2021/01/06 19:23:01;;;;;;;9.18;4.82;;;;;;;4.26;83.45;99150.56;5034141;28;20206;-64
2021/01/06 19:25:28;;;;;;;5.75;4.82;;;;;;;4.42;83.62;99147.28;5033767;28;20278;-64
2021/01/06 19:28:03;;;;;;;8.27;5.65;;;;;;;4.44;83.38;99148.09;5034141;28;20207;-64
2021/01/06 19:30:46;;;;;;;9.73;4.60;;;;;;;4.61;82.68;99150.94;5034417;28;20213;-64
2021/01/06 19:33:17;;;;;;;6.55;4.47;;;;;;;4.67;82.39;99150.69;5032920;28;20636;-64
2021/01/06 19:35:44;;;;;;;11.65;6.18;;;;;;;4.60;83.34;99151.88;5033948;28;20208;-64
2021/01/06 19:38:13;;;;;;;9.02;4.60;;;;;;;4.76;82.07;99150.31;5033684;28;20330;-65
2021/01/06 19:40:41;;;;;;;10.40;5.10;;;;;;;4.63;82.17;99146.41;5034091;28;20211;-65
2021/01/06 19:43:09;;;;;;;10.27;5.43;;;;;;;4.63;81.79;99153.53;5033981;28;20191;-65
2021/01/06 19:45:36;;;;;;;6.00;4.30;;;;;;;4.59;81.83;99156.34;5033566;28;20210;-65
2021/01/06 19:48:05;;;;;;;6.88;3.88;;;;;;;4.44;82.90;99153.44;5033823;28;20277;-65
2021/01/06 19:50:34;;;;;;;7.30;4.68;;;;;;;4.31;84.39;99159.25;5033673;28;20229;-65
2021/01/06 19:53:18;;;;;;;9.13;5.10;;;;;;;4.52;83.26;99153.97;5033764;28;20650;-65
2021/01/06 19:55:47;;;;;;;7.80;5.00;;;;;;;4.41;83.33;99161.53;5033536;28;20291;-64
2021/01/06 19:58:19;;;;;;;8.55;4.40;;;;;;;4.43;83.65;99163.22;5033750;28;20226;-65
2021/01/06 20:00:46;;;;;;;6.43;4.85;;;;;;;4.60;83.04;99157.22;5033521;28;20198;-65